Time;durP1;ratioP1;P1;durP2;ratioP2;P2;SDS_P1;SDS_P2;PMS_P1;PMS_P2;Temp;Humidity;BMP_temperature;BMP_pressure;BME280_temperature;BME280_humidity;BME280_pressure;Samples;Min_cycle;Max_cycle;Signal;HPM_P1;HPM_P2
2023/05/12 00:00:32;;;;;;;;;;;;;;;11.36;99.32;95394.16;5073377;28;1046;-54
2023/05/12 00:03:01;;;;;;;;;;;;;;;11.33;98.85;95393.50;5073250;28;1044;-54
2023/05/12 00:05:28;;;;;;;;;;;;;;;11.31;98.29;95394.66;5073077;28;1096;-54
2023/05/12 00:07:54;;;;;;;;;;;;;;;11.39;98.50;95391.19;5073129;28;969;-54
2023/05/12 00:10:20;;;;;;;;;;;;;;;11.37;98.04;95394.00;5073212;28;1917;-54
2023/05/12 00:12:46;;;;;;;;;;;;;;;11.37;97.87;95393.19;5073291;28;1015;-54
2023/05/12 00:15:12;;;;;;;;;;;;;;;11.42;97.16;95393.53;5072954;28;1265;-54
2023/05/12 00:17:38;;;;;;;;;;;;;;;11.33;96.81;95396.16;5072869;28;1049;-54
2023/05/12 00:20:04;;;;;;;;;;;;;;;11.36;96.92;95403.03;5072942;28;1845;-54
2023/05/12 00:22:31;;;;;;;;;;;;;;;11.33;97.14;95390.81;5072880;28;1037;-54
2023/05/12 00:24:57;;;;;;;;;;;;;;;11.21;96.16;95394.78;5072891;28;1018;-54
2023/05/12 00:27:23;;;;;;;;;;;;;;;11.17;96.19;95397.91;5072882;28;1033;-54
2023/05/12 00:29:48;;;;;;;;;;;;;;;11.07;97.06;95395.34;5072953;28;1993;-54
2023/05/12 00:32:15;;;;;;;;;;;;;;;11.09;98.26;95396.88;5072832;28;1013;-54
2023/05/12 00:34:42;;;;;;;;;;;;;;;11.12;96.07;95396.56;5072814;28;1947;-54
2023/05/12 00:37:08;;;;;;;;;;;;;;;11.03;96.81;95402.03;5072708;28;1341;-54
2023/05/12 00:39:35;;;;;;;;;;;;;;;10.95;98.08;95408.16;5072710;28;1557;-54
2023/05/12 00:42:01;;;;;;;;;;;;;;;10.96;98.42;95396.44;5072694;28;1198;-54
2023/05/12 00:44:27;;;;;;;;;;;;;;;10.91;98.10;95394.25;5072661;28;1056;-54
2023/05/12 00:46:54;;;;;;;;;;;;;;;10.92;97.54;95398.59;5055126;28;1065;-54
2023/05/12 00:49:20;;;;;;;;;;;;;;;10.93;97.21;95407.47;5072868;28;1992;-54
2023/05/12 00:51:46;;;;;;;;;;;;;;;10.81;97.23;95404.19;5072897;28;1020;-54
2023/05/12 00:54:12;;;;;;;;;;;;;;;10.83;96.66;95409.41;5072878;28;985;-54
2023/05/12 00:56:38;;;;;;;;;;;;;;;10.88;96.54;95399.06;5072692;28;1041;-54
2023/05/12 00:59:05;;;;;;;;;;;;;;;10.80;96.82;95413.25;5073073;28;1021;-53
2023/05/12 01:01:31;;;;;;;;;;;;;;;10.78;96.68;95403.69;5072658;28;965;-54
2023/05/12 01:03:58;;;;;;;;;;;;;;;10.75;96.98;95403.00;5073687;28;1021;-54
2023/05/12 01:06:28;;;;;;;;;;;;;;;10.75;96.47;95400.31;5076314;28;1224;-54
2023/05/12 01:08:54;;;;;;;;;;;;;;;10.75;94.50;95402.16;5076000;28;1977;-54
2023/05/12 01:11:21;;;;;;;;;;;;;;;10.55;94.85;95406.88;5076139;28;1024;-54
2023/05/12 01:13:47;;;;;;;;;;;;;;;10.57;96.29;95404.00;5075961;28;1105;-54
2023/05/12 01:16:14;;;;;;;;;;;;;;;10.66;96.05;95400.41;5076088;28;1024;-54
2023/05/12 01:18:42;;;;;;;;;;;;;;;10.61;95.13;95394.72;5075981;28;993;-54
2023/05/12 01:21:09;;;;;;;;;;;;;;;10.51;94.84;95397.47;5076121;28;989;-53
2023/05/12 01:23:38;;;;;;;;;;;;;;;10.46;95.25;95397.94;5075827;28;1032;-54
2023/05/12 01:26:07;;;;;;;;;;;;;;;10.35;95.68;95399.00;5075659;28;1032;-54
2023/05/12 01:28:35;;;;;;;;;;;;;;;10.43;95.52;95398.22;5075563;28;1917;-54
2023/05/12 01:31:02;;;;;;;;;;;;;;;10.49;95.16;95394.97;5075843;28;998;-54
2023/05/12 01:33:28;;;;;;;;;;;;;;;10.47;94.80;95396.09;5075417;28;1046;-54
2023/05/12 01:35:54;;;;;;;;;;;;;;;10.58;95.49;95400.34;5075280;28;1147;-55
2023/05/12 01:38:20;;;;;;;;;;;;;;;10.52;95.78;95397.31;5075447;28;1067;-54
2023/05/12 01:40:46;;;;;;;;;;;;;;;10.54;94.33;95397.16;5075407;28;1077;-54
2023/05/12 01:43:12;;;;;;;;;;;;;;;10.62;95.14;95401.72;5075622;28;962;-54
2023/05/12 01:45:38;;;;;;;;;;;;;;;10.58;94.37;95403.03;5075348;28;1069;-54
2023/05/12 01:48:04;;;;;;;;;;;;;;;10.64;95.11;95400.59;5075421;28;1910;-54
2023/05/12 01:50:30;;;;;;;;;;;;;;;10.65;94.78;95398.75;5057792;28;1017;-53
2023/05/12 01:52:56;;;;;;;;;;;;;;;10.55;95.40;95399.69;5075233;28;1077;-54
2023/05/12 01:55:22;;;;;;;;;;;;;;;10.64;94.12;95394.38;5075045;28;1299;-54
2023/05/12 01:57:48;;;;;;;;;;;;;;;10.68;94.31;95398.41;5075430;28;1037;-53
2023/05/12 02:00:14;;;;;;;;;;;;;;;10.71;94.11;95396.28;5075339;28;1012;-54
2023/05/12 02:02:41;;;;;;;;;;;;;;;10.80;94.90;95402.53;5074963;28;1104;-54
2023/05/12 02:05:08;;;;;;;;;;;;;;;10.83;92.99;95396.03;5074987;28;1077;-54
2023/05/12 02:07:34;;;;;;;;;;;;;;;10.78;93.35;95403.69;5074786;28;1081;-57
2023/05/12 02:10:00;;;;;;;;;;;;;;;10.87;93.74;95395.56;5074762;28;1997;-54
2023/05/12 02:12:26;;;;;;;;;;;;;;;10.80;93.48;95391.00;5074977;28;961;-54
2023/05/12 02:14:52;;;;;;;;;;;;;;;10.86;93.88;95396.56;5074496;28;1030;-54
2023/05/12 02:17:17;;;;;;;;;;;;;;;10.80;94.30;95396.34;5074584;28;2000;-53
2023/05/12 02:19:43;;;;;;;;;;;;;;;10.70;95.57;95402.63;5074796;28;993;-54
2023/05/12 02:22:09;;;;;;;;;;;;;;;10.78;96.63;95399.19;5074941;28;1013;-54
2023/05/12 02:24:35;;;;;;;;;;;;;;;10.77;95.85;95399.34;5074554;28;1001;-54
2023/05/12 02:27:01;;;;;;;;;;;;;;;10.74;96.63;95401.31;5074538;28;1050;-54
2023/05/12 02:29:27;;;;;;;;;;;;;;;10.84;95.68;95401.22;5074362;28;1905;-54
2023/05/12 02:31:53;;;;;;;;;;;;;;;10.87;95.16;95410.75;5074512;28;1048;-54
2023/05/12 02:34:19;;;;;;;;;;;;;;;10.81;94.14;95404.19;5074599;28;1017;-54
2023/05/12 02:36:45;;;;;;;;;;;;;;;10.75;94.35;95403.00;5074148;28;1570;-54
2023/05/12 02:39:12;;;;;;;;;;;;;;;10.68;93.48;95404.63;5074275;28;1035;-54
2023/05/12 02:41:38;;;;;;;;;;;;;;;10.70;94.27;95402.63;5074240;28;1037;-54
2023/05/12 02:44:04;;;;;;;;;;;;;;;10.64;93.63;95402.41;5074352;28;1001;-54
2023/05/12 02:46:30;;;;;;;;;;;;;;;10.62;94.34;95405.22;5074180;28;1024;-54
2023/05/12 02:48:56;;;;;;;;;;;;;;;10.63;95.04;95404.25;5074062;28;1984;-54
2023/05/12 02:51:22;;;;;;;;;;;;;;;10.58;92.84;95406.53;5074122;28;1022;-55
2023/05/12 02:53:48;;;;;;;;;;;;;;;10.56;92.79;95408.53;5073986;28;1050;-53
2023/05/12 02:56:15;;;;;;;;;;;;;;;10.52;94.27;95405.31;5073854;28;1100;-53
2023/05/12 02:58:41;;;;;;;;;;;;;;;10.58;93.61;95409.22;5074250;28;1028;-54
2023/05/12 03:01:07;;;;;;;;;;;;;;;10.54;93.54;95410.53;5074125;28;969;-54
2023/05/12 03:03:33;;;;;;;;;;;;;;;10.59;92.55;95400.22;5074101;28;1024;-54
2023/05/12 03:05:59;;;;;;;;;;;;;;;10.55;92.37;95409.53;5073850;28;1007;-54
2023/05/12 03:08:25;;;;;;;;;;;;;;;10.63;92.46;95419.47;5073616;28;1978;-53
2023/05/12 03:10:51;;;;;;;;;;;;;;;10.61;90.44;95422.28;5074001;28;1013;-54
2023/05/12 03:13:17;;;;;;;;;;;;;;;10.68;91.64;95418.00;5073854;28;1020;-53
2023/05/12 03:15:43;;;;;;;;;;;;;;;10.73;92.85;95421.03;5073837;28;1013;-54
2023/05/12 03:18:08;;;;;;;;;;;;;;;10.74;92.82;95414.69;5073660;28;1104;-53
2023/05/12 03:20:35;;;;;;;;;;;;;;;10.76;93.14;95411.88;5073628;28;1331;-54
2023/05/12 03:23:01;;;;;;;;;;;;;;;10.75;92.83;95411.00;5073543;28;1622;-54
2023/05/12 03:25:27;;;;;;;;;;;;;;;10.68;94.42;95409.13;5073408;28;957;-53
2023/05/12 03:27:53;;;;;;;;;;;;;;;10.60;95.66;95417.09;5073000;28;1033;-54
2023/05/12 03:30:19;;;;;;;;;;;;;;;10.60;95.64;95415.25;5055829;28;2016;-54
2023/05/12 03:32:45;;;;;;;;;;;;;;;10.73;94.02;95414.84;5073478;28;1010;-54
2023/05/12 03:35:11;;;;;;;;;;;;;;;10.73;92.22;95413.00;5073409;28;1150;-54
2023/05/12 03:37:37;;;;;;;;;;;;;;;10.80;92.10;95420.44;5073304;28;1302;-53
2023/05/12 03:40:03;;;;;;;;;;;;;;;10.82;92.27;95418.44;5073639;28;1052;-54
2023/05/12 03:42:29;;;;;;;;;;;;;;;10.84;92.72;95411.94;5073458;28;1004;-54
2023/05/12 03:44:55;;;;;;;;;;;;;;;10.88;92.23;95420.47;5073461;28;974;-54
2023/05/12 03:47:21;;;;;;;;;;;;;;;10.92;92.37;95419.16;5073502;28;1041;-54
2023/05/12 03:49:47;;;;;;;;;;;;;;;10.91;93.26;95426.34;5073235;28;1980;-54
2023/05/12 03:52:13;;;;;;;;;;;;;;;10.78;93.61;95425.09;5073081;28;1869;-54
2023/05/12 03:54:39;;;;;;;;;;;;;;;10.66;92.38;95425.34;5073441;28;1044;-54
2023/05/12 03:57:05;;;;;;;;;;;;;;;10.54;91.52;95423.88;5073416;28;1036;-54
2023/05/12 03:59:31;;;;;;;;;;;;;;;10.49;91.87;95426.19;5073278;28;989;-54
2023/05/12 04:01:57;;;;;;;;;;;;;;;10.55;93.14;95431.75;5073440;28;981;-54
2023/05/12 04:04:23;;;;;;;;;;;;;;;10.72;92.40;95429.22;5073040;28;985;-53
2023/05/12 04:06:49;;;;;;;;;;;;;;;10.83;92.69;95431.66;5073003;28;1053;-54
2023/05/12 04:09:15;;;;;;;;;;;;;;;10.79;91.72;95426.75;5072878;28;1910;-54
2023/05/12 04:11:42;;;;;;;;;;;;;;;10.73;91.45;95426.38;5073192;28;1033;-55
2023/05/12 04:14:08;;;;;;;;;;;;;;;10.64;92.63;95432.69;5072958;28;958;-55
2023/05/12 04:16:34;;;;;;;;;;;;;;;10.65;93.98;95433.50;5072809;28;1864;-55
2023/05/12 04:19:00;;;;;;;;;;;;;;;10.65;92.09;95434.34;5072921;28;1093;-55
2023/05/12 04:21:26;;;;;;;;;;;;;;;10.60;92.63;95435.81;5055063;28;1053;-54
2023/05/12 04:23:52;;;;;;;;;;;;;;;10.79;92.04;95440.13;5072977;28;1101;-54
2023/05/12 04:26:19;;;;;;;;;;;;;;;10.87;91.17;95440.19;5072819;28;1030;-55
2023/05/12 04:28:46;;;;;;;;;;;;;;;10.92;91.96;95444.06;5073108;28;1906;-54
2023/05/12 04:31:12;;;;;;;;;;;;;;;10.97;90.84;95446.31;5072840;28;1043;-54
2023/05/12 04:33:38;;;;;;;;;;;;;;;11.06;90.89;95440.00;5072817;28;1021;-54
2023/05/12 04:36:04;;;;;;;;;;;;;;;11.06;91.98;95448.03;5072837;28;1138;-55
2023/05/12 04:38:30;;;;;;;;;;;;;;;11.01;92.29;95450.34;5074812;28;1049;-54
2023/05/12 04:40:57;;;;;;;;;;;;;;;10.97;88.73;95457.00;5076885;28;1092;-54
2023/05/12 04:43:23;;;;;;;;;;;;;;;10.99;89.55;95451.50;5076639;28;966;-53
2023/05/12 04:45:50;;;;;;;;;;;;;;;10.91;90.18;95452.28;5076404;28;1092;-54
2023/05/12 04:48:16;;;;;;;;;;;;;;;10.81;91.73;95451.50;5076267;28;1914;-54
2023/05/12 04:50:42;;;;;;;;;;;;;;;10.80;92.46;95450.69;5076697;28;1036;-54
2023/05/12 04:53:08;;;;;;;;;;;;;;;10.86;94.16;95450.06;5076540;28;981;-54
2023/05/12 04:55:35;;;;;;;;;;;;;;;11.00;93.73;95445.13;5076393;28;1036;-54
2023/05/12 04:58:01;;;;;;;;;;;;;;;11.08;92.46;95447.88;5076399;28;1496;-55
2023/05/12 05:00:28;;;;;;;;;;;;;;;11.09;91.42;95453.06;5076036;28;1561;-55
2023/05/12 05:02:54;;;;;;;;;;;;;;;11.08;91.47;95447.88;5076194;28;974;-55
2023/05/12 05:05:20;;;;;;;;;;;;;;;11.12;92.44;95454.59;5075947;28;1024;-55
2023/05/12 05:07:46;;;;;;;;;;;;;;;11.09;93.52;95452.22;5076317;28;1293;-54
2023/05/12 05:10:12;;;;;;;;;;;;;;;11.01;93.15;95458.38;5058419;28;1914;-54
2023/05/12 05:12:38;;;;;;;;;;;;;;;11.09;92.52;95450.38;5075960;28;1105;-54
2023/05/12 05:15:05;;;;;;;;;;;;;;;11.05;91.60;95454.38;5076169;28;1072;-54
2023/05/12 05:17:31;;;;;;;;;;;;;;;11.05;91.69;95459.72;5075914;28;1029;-54
2023/05/12 05:19:57;;;;;;;;;;;;;;;11.02;93.31;95453.84;5075821;28;1022;-54
2023/05/12 05:22:23;;;;;;;;;;;;;;;10.96;93.68;95462.50;5075982;28;1036;-54
2023/05/12 05:24:49;;;;;;;;;;;;;;;10.92;94.55;95459.28;5075988;28;985;-54
2023/05/12 05:27:15;;;;;;;;;;;;;;;10.97;93.61;95458.84;5075931;28;946;-54
2023/05/12 05:29:41;;;;;;;;;;;;;;;10.98;94.75;95457.84;5075596;28;2018;-54
2023/05/12 05:32:07;;;;;;;;;;;;;;;10.98;95.33;95455.16;5075885;28;1012;-54
2023/05/12 05:34:33;;;;;;;;;;;;;;;11.00;94.47;95456.66;5075461;28;1076;-54
2023/05/12 05:36:59;;;;;;;;;;;;;;;11.00;95.67;95453.16;5075251;28;1263;-54
2023/05/12 05:39:29;;;;;;;;;;;;;;;11.07;94.28;95452.38;5075663;28;1009;-54
2023/05/12 05:41:56;;;;;;;;;;;;;;;11.09;94.60;95450.38;5075432;28;1022;-54
2023/05/12 05:44:23;;;;;;;;;;;;;;;11.13;96.43;95451.78;5075355;28;1041;-54
2023/05/12 05:46:49;;;;;;;;;;;;;;;11.25;94.83;95460.38;5075302;28;1211;-55
2023/05/12 05:49:16;;;;;;;;;;;;;;;11.42;94.08;95472.03;5074803;28;1997;-55
2023/05/12 05:51:42;;;;;;;;;;;;;;;11.47;93.22;95469.69;5075102;28;1913;-54
2023/05/12 05:54:08;;;;;;;;;;;;;;;11.45;92.55;95466.34;5075258;28;1034;-55
2023/05/12 05:56:34;;;;;;;;;;;;;;;11.45;91.77;95466.34;5057206;28;1026;-55
2023/05/12 05:59:03;;;;;;;;;;;;;;;11.34;94.21;95463.91;5057559;28;958;-55
2023/05/12 06:01:32;;;;;;;;;;;;;;;11.33;95.02;95472.97;5075074;28;1033;-55
2023/05/12 06:03:58;;;;;;;;;;;;;;;11.32;94.79;95469.47;5074997;28;930;-55
2023/05/12 06:06:24;;;;;;;;;;;;;;;11.29;94.34;95475.13;5075102;28;1016;-55
2023/05/12 06:08:50;;;;;;;;;;;;;;;11.41;94.62;95474.84;5057062;28;1987;-54
2023/05/12 06:11:16;;;;;;;;;;;;;;;11.47;92.34;95479.56;5075070;28;1021;-54
2023/05/12 06:13:42;;;;;;;;;;;;;;;11.45;92.19;95487.75;5074799;28;1102;-54
2023/05/12 06:16:08;;;;;;;;;;;;;;;11.55;93.57;95482.28;5075095;28;989;-54
2023/05/12 06:18:36;;;;;;;;;;;;;;;11.61;90.49;95470.94;5074855;28;1254;-55
2023/05/12 06:21:03;;;;;;;;;;;;;;;11.66;88.47;95478.50;5074685;28;1080;-55
2023/05/12 06:23:29;;;;;;;;;;;;;;;11.66;88.62;95492.72;5074504;28;1058;-55
2023/05/12 06:25:55;;;;;;;;;;;;;;;11.51;88.38;95481.78;5074524;28;1092;-55
2023/05/12 06:28:21;;;;;;;;;;;;;;;11.68;89.56;95487.22;5074402;28;1905;-55
2023/05/12 06:30:47;;;;;;;;;;;;;;;11.83;90.62;95485.59;5056830;28;981;-54
2023/05/12 06:33:13;;;;;;;;;;;;;;;11.87;87.34;95486.13;5074568;28;1060;-55
2023/05/12 06:35:39;;;;;;;;;;;;;;;11.82;86.37;95489.31;5074555;28;1162;-55
2023/05/12 06:38:06;;;;;;;;;;;;;;;11.70;89.30;95487.88;5074246;28;1224;-55
2023/05/12 06:40:32;;;;;;;;;;;;;;;11.65;88.97;95491.06;5074116;28;1002;-55
2023/05/12 06:42:58;;;;;;;;;;;;;;;11.71;88.71;95487.72;5074581;28;1074;-55
2023/05/12 06:45:24;;;;;;;;;;;;;;;11.72;86.26;95486.75;5074118;28;1109;-55
2023/05/12 06:47:50;;;;;;;;;;;;;;;11.76;87.37;95492.63;5074149;28;1073;-55
2023/05/12 06:50:17;;;;;;;;;;;;;;;11.96;88.77;95492.41;5073909;28;1922;-55
2023/05/12 06:52:43;;;;;;;;;;;;;;;11.95;87.78;95491.56;5074059;28;1093;-55
2023/05/12 06:55:09;;;;;;;;;;;;;;;12.03;89.05;95488.91;5074245;28;1025;-55
2023/05/12 06:57:36;;;;;;;;;;;;;;;11.94;87.48;95494.41;5073980;28;1057;-55
2023/05/12 07:00:03;;;;;;;;;;;;;;;12.03;87.85;95483.56;5073888;28;1077;-55
2023/05/12 07:02:29;;;;;;;;;;;;;;;12.20;86.91;95483.59;5073791;28;974;-55
2023/05/12 07:04:55;;;;;;;;;;;;;;;12.26;87.71;95481.09;5074096;28;973;-55
2023/05/12 07:07:21;;;;;;;;;;;;;;;12.26;87.64;95485.63;5073695;28;1045;-55
2023/05/12 07:09:48;;;;;;;;;;;;;;;12.35;87.62;95489.16;5073626;28;1905;-55
2023/05/12 07:12:14;;;;;;;;;;;;;;;12.15;87.59;95484.09;5073598;28;1119;-55
2023/05/12 07:14:40;;;;;;;;;;;;;;;12.33;88.21;95488.50;5073927;28;1036;-55
2023/05/12 07:17:06;;;;;;;;;;;;;;;12.40;88.82;95486.84;5073952;28;1056;-55
2023/05/12 07:19:34;;;;;;;;;;;;;;;12.56;87.44;95481.53;5073676;28;966;-55
2023/05/12 07:22:00;;;;;;;;;;;;;;;12.55;86.89;95484.38;5073656;28;1028;-54
2023/05/12 07:24:26;;;;;;;;;;;;;;;12.36;86.58;95485.50;5073447;28;1069;-55
2023/05/12 07:26:52;;;;;;;;;;;;;;;12.38;84.82;95494.22;5073694;28;973;-55
2023/05/12 07:29:18;;;;;;;;;;;;;;;12.23;85.86;95492.16;5073286;28;1914;-55
2023/05/12 07:31:44;;;;;;;;;;;;;;;12.32;86.23;95487.66;5073325;28;1026;-55
2023/05/12 07:34:11;;;;;;;;;;;;;;;12.35;84.81;95487.34;5073263;28;1092;-55
2023/05/12 07:37:09;;;;;;;;;;;;;;;12.27;84.85;95485.47;5065769;28;1225;-56
2023/05/12 07:39:35;;;;;;;;;;;;;;;12.40;84.13;95490.34;5033359;28;1046;-55
2023/05/12 07:42:02;;;;;;;;;;;;;;;12.59;84.11;95485.69;5033289;28;1121;-55
2023/05/12 07:44:29;;;;;;;;;;;;;;;12.58;83.60;95486.72;5033509;28;1003;-55
2023/05/12 07:46:55;;;;;;;;;;;;;;;12.56;85.59;95483.34;5033310;28;926;-55
2023/05/12 07:49:22;;;;;;;;;;;;;;;12.66;83.77;95486.72;5033432;28;1902;-55
2023/05/12 07:51:48;;;;;;;;;;;;;;;12.54;85.77;95488.91;5033593;28;1041;-55
2023/05/12 07:54:14;;;;;;;;;;;;;;;12.55;84.86;95487.03;5032135;28;1033;-55
2023/05/12 07:56:40;;;;;;;;;;;;;;;12.77;83.49;95485.56;5033184;28;1101;-54
2023/05/12 07:59:07;;;;;;;;;;;;;;;12.90;82.30;95488.59;5033068;28;1323;-54
2023/05/12 08:01:33;;;;;;;;;;;;;;;12.77;83.45;95486.41;5033037;28;1038;-54
2023/05/12 08:03:59;;;;;;;;;;;;;;;12.87;85.39;95489.75;5033275;28;1045;-54
2023/05/12 08:06:26;;;;;;;;;;;;;;;12.77;83.60;95489.09;5033024;28;1120;-55
2023/05/12 08:08:52;;;;;;;;;;;;;;;12.91;85.08;95495.63;5032976;28;1979;-54
2023/05/12 08:11:18;;;;;;;;;;;;;;;13.05;81.12;95492.28;5033102;28;1034;-54
2023/05/12 08:13:44;;;;;;;;;;;;;;;13.23;82.67;95492.09;5035511;28;1045;-54
2023/05/12 08:16:10;;;;;;;;;;;;;;;13.37;80.90;95495.97;5037329;28;982;-54
2023/05/12 08:18:37;;;;;;;;;;;;;;;13.54;80.54;95495.94;5037067;28;1095;-54
2023/05/12 08:21:03;;;;;;;;;;;;;;;13.55;80.02;95493.09;5036975;28;1057;-55
2023/05/12 08:23:29;;;;;;;;;;;;;;;13.61;80.00;95499.63;5035779;28;1045;-55
2023/05/12 08:25:55;;;;;;;;;;;;;;;13.29;80.11;95493.28;5036856;28;1057;-54
2023/05/12 08:28:21;;;;;;;;;;;;;;;13.12;80.41;95495.13;5036634;28;1975;-55
2023/05/12 08:30:47;;;;;;;;;;;;;;;13.12;78.99;95492.44;5037064;28;1047;-55
2023/05/12 08:33:13;;;;;;;;;;;;;;;13.47;80.46;95490.44;5036859;28;1032;-55
2023/05/12 08:35:39;;;;;;;;;;;;;;;13.65;78.44;95492.91;5036640;28;1154;-55
2023/05/12 08:38:06;;;;;;;;;;;;;;;13.82;77.42;95491.84;5056502;28;1883;-55
2023/05/12 08:40:36;;;;;;;;;;;;;;;14.01;77.71;95490.59;5076471;28;978;-55
2023/05/12 08:43:05;;;;;;;;;;;;;;;14.10;77.63;95483.34;5076708;28;962;-55
2023/05/12 08:45:34;;;;;;;;;;;;;;;14.20;76.70;95480.44;5076571;28;1037;-55
2023/05/12 08:48:01;;;;;;;;;;;;;;;14.24;76.94;95477.22;5076413;28;1100;-54
2023/05/12 08:50:29;;;;;;;;;;;;;;;14.08;79.53;95487.25;5076361;28;1910;-55
2023/05/12 08:52:56;;;;;;;;;;;;;;;13.97;80.02;95485.75;5076573;28;972;-55
2023/05/12 08:55:22;;;;;;;;;;;;;;;13.91;80.11;95489.16;5076240;28;1050;-55
2023/05/12 08:57:48;;;;;;;;;;;;;;;13.94;78.63;95483.41;5076243;28;823;-55
2023/05/12 09:00:15;;;;;;;;;;;;;;;14.03;76.64;95480.50;5058469;28;1101;-55
2023/05/12 09:02:42;;;;;;;;;;;;;;;14.00;78.39;95485.38;5076386;28;1040;-55
2023/05/12 09:05:08;;;;;;;;;;;;;;;14.10;80.51;95485.22;5076402;28;1010;-55
2023/05/12 09:07:35;;;;;;;;;;;;;;;13.96;78.74;95484.06;5075967;28;1093;-55
2023/05/12 09:10:02;;;;;;;;;;;;;;;13.94;79.57;95481.53;5076231;28;2000;-55
2023/05/12 09:12:30;;;;;;;;;;;;;;;13.98;80.62;95477.53;5076062;28;1032;-55
2023/05/12 09:15:02;;;;;;;;;;;;;;;13.95;83.97;95482.41;5076310;28;998;-55
2023/05/12 09:17:28;;;;;;;;;;;;;;;13.97;80.59;95481.22;5075776;28;1120;-55
2023/05/12 09:19:55;;;;;;;;;;;;;;;13.90;81.06;95471.31;5075838;28;1042;-55
2023/05/12 09:22:30;;;;;;;;;;;;;;;14.17;80.27;95486.16;5075779;28;961;-55
2023/05/12 09:24:56;;;;;;;;;;;;;;;14.24;80.03;95482.59;5074700;28;1042;-55
2023/05/12 09:27:23;;;;;;;;;;;;;;;14.11;83.21;95484.19;5075825;28;958;-55
2023/05/12 09:29:49;;;;;;;;;;;;;;;14.18;82.35;95477.09;5075717;28;2020;-55
2023/05/12 09:32:15;;;;;;;;;;;;;;;14.30;82.26;95485.59;5075466;28;1089;-55
2023/05/12 09:34:42;;;;;;;;;;;;;;;14.38;80.03;95483.72;5057953;28;1048;-55
2023/05/12 09:37:08;;;;;;;;;;;;;;;14.30;81.83;95480.22;5075279;28;1323;-55
2023/05/12 09:39:35;;;;;;;;;;;;;;;14.09;81.76;95481.66;5075402;28;1056;-55
2023/05/12 09:42:01;;;;;;;;;;;;;;;14.12;82.85;95481.31;5075283;28;1045;-56
2023/05/12 09:44:30;;;;;;;;;;;;;;;14.14;81.94;95492.72;5075311;28;1042;-55
2023/05/12 09:47:04;;;;;;;;;;;;;;;14.12;82.43;95483.19;5075339;28;1058;-55
2023/05/12 09:49:30;;;;;;;;;;;;;;;14.00;82.00;95480.88;5075203;28;1906;-55
2023/05/12 09:52:00;;;;;;;;;;;;;;;14.09;81.48;95478.97;5075565;28;961;-55
2023/05/12 09:54:27;;;;;;;;;;;;;;;14.18;81.74;95479.78;5075447;28;1032;-55
2023/05/12 09:56:57;;;;;;;;;;;;;;;14.18;81.09;95475.22;5075089;28;1089;-55
2023/05/12 09:59:25;;;;;;;;;;;;;;;14.40;81.76;95476.31;5075081;28;1054;-55
2023/05/12 10:01:52;;;;;;;;;;;;;;;14.61;79.89;95473.00;5075099;28;1225;-55
2023/05/12 10:04:19;;;;;;;;;;;;;;;14.61;80.38;95473.00;5074980;28;1107;-56
2023/05/12 10:06:46;;;;;;;;;;;;;;;14.63;79.30;95486.28;5075048;28;1104;-56
2023/05/12 10:09:13;;;;;;;;;;;;;;;14.74;80.97;95476.94;5074740;28;1909;-55
2023/05/12 10:11:39;;;;;;;;;;;;;;;14.84;81.49;95480.25;5074996;28;990;-55
2023/05/12 10:14:08;;;;;;;;;;;;;;;15.00;80.40;95477.44;5074814;28;1060;-55
2023/05/12 10:16:34;;;;;;;;;;;;;;;15.09;79.81;95474.69;5074843;28;1059;-56
2023/05/12 10:19:04;;;;;;;;;;;;;;;15.02;80.11;95478.13;5074678;28;1041;-56
2023/05/12 10:21:30;;;;;;;;;;;;;;;15.03;80.19;95473.56;5074525;28;1100;-55
2023/05/12 10:23:57;;;;;;;;;;;;;;;15.05;81.05;95473.38;5074947;28;1051;-56
2023/05/12 10:26:24;;;;;;;;;;;;;;;15.21;80.50;95470.53;5074635;28;1282;-57
2023/05/12 10:28:51;;;;;;;;;;;;;;;15.31;77.76;95462.19;5074503;28;2007;-56
2023/05/12 10:31:17;;;;;;;;;;;;;;;15.37;76.84;95465.00;5074577;28;968;-56
2023/05/12 10:33:54;;;;;;;;;;;;;;;15.34;77.25;95464.53;5074357;28;1235;-56
2023/05/12 10:36:20;;;;;;;;;;;;;;;15.34;77.42;95469.91;5074184;28;1142;-56
2023/05/12 10:38:48;;;;;;;;;;;;;;;15.16;79.73;95464.88;5074284;28;1089;-56
2023/05/12 10:41:15;;;;;;;;;;;;;;;15.22;79.55;95459.56;5074348;28;983;-56
2023/05/12 10:43:44;;;;;;;;;;;;;;;15.36;79.30;95457.09;5074275;28;1029;-57
2023/05/12 10:46:20;;;;;;;;;;;;;;;15.54;77.31;95460.28;5074051;28;1034;-57
2023/05/12 10:48:49;;;;;;;;;;;;;;;15.54;79.73;95462.16;5074094;28;1910;-57
2023/05/12 10:51:18;;;;;;;;;;;;;;;15.41;79.08;95469.00;5074185;28;1076;-55
2023/05/12 10:53:44;;;;;;;;;;;;;;;15.47;78.22;95462.03;5074039;28;1876;-55
2023/05/12 10:56:10;;;;;;;;;;;;;;;15.38;78.74;95468.53;5073858;28;1046;-55
2023/05/12 10:58:36;;;;;;;;;;;;;;;15.37;77.78;95472.25;5073964;28;966;-56
2023/05/12 11:01:05;;;;;;;;;;;;;;;15.32;76.97;95464.69;5073823;28;1871;-56
2023/05/12 11:03:32;;;;;;;;;;;;;;;15.16;79.69;95478.34;5074029;28;1065;-56
2023/05/12 11:05:59;;;;;;;;;;;;;;;15.13;78.13;95470.59;5074148;28;961;-56
2023/05/12 11:08:26;;;;;;;;;;;;;;;15.10;77.63;95473.66;5073971;28;1910;-56
2023/05/12 11:10:52;;;;;;;;;;;;;;;14.97;81.81;95483.19;5073930;28;1013;-56
2023/05/12 11:13:18;;;;;;;;;;;;;;;14.96;79.45;95476.13;5073592;28;1576;-56
2023/05/12 11:15:44;;;;;;;;;;;;;;;15.00;81.56;95480.13;5073631;28;978;-56
2023/05/12 11:18:11;;;;;;;;;;;;;;;15.09;80.55;95488.16;5073798;28;941;-56
2023/05/12 11:20:37;;;;;;;;;;;;;;;15.10;80.60;95477.22;5073883;28;1000;-55
2023/05/12 11:23:03;;;;;;;;;;;;;;;15.25;80.18;95476.38;5073864;28;1049;-56
2023/05/12 11:25:29;;;;;;;;;;;;;;;15.41;78.44;95469.00;5073452;28;1053;-56
2023/05/12 11:27:56;;;;;;;;;;;;;;;15.55;78.77;95471.91;5073533;28;980;-56
2023/05/12 11:30:22;;;;;;;;;;;;;;;15.71;78.03;95474.44;5073610;28;1906;-56
2023/05/12 11:32:58;;;;;;;;;;;;;;;15.72;78.93;95476.09;5073391;28;1053;-56
2023/05/12 11:35:28;;;;;;;;;;;;;;;15.91;80.25;95479.28;5073297;28;1193;-56
2023/05/12 11:37:54;;;;;;;;;;;;;;;16.05;76.67;95475.75;5073351;28;1108;-56
2023/05/12 11:40:21;;;;;;;;;;;;;;;15.98;76.44;95477.53;5073249;28;962;-56
2023/05/12 11:42:50;;;;;;;;;;;;;;;15.96;75.93;95488.50;5073549;28;1032;-56
2023/05/12 11:45:20;;;;;;;;;;;;;;;16.14;75.46;95474.66;5073371;28;1037;-56
2023/05/12 11:47:46;;;;;;;;;;;;;;;16.18;75.75;95473.25;5072838;28;1091;-56
2023/05/12 11:50:18;;;;;;;;;;;;;;;16.35;74.77;95468.47;5073052;28;1903;-56
2023/05/12 11:52:44;;;;;;;;;;;;;;;16.34;75.50;95465.94;5073222;28;1309;-56
2023/05/12 11:55:10;;;;;;;;;;;;;;;16.48;75.68;95465.06;5073003;28;1391;-56
2023/05/12 11:57:37;;;;;;;;;;;;;;;16.38;74.10;95459.16;5073397;28;1215;-56
2023/05/12 12:00:07;;;;;;;;;;;;;;;16.27;74.43;95457.75;5073345;28;1046;-56
2023/05/12 12:02:35;;;;;;;;;;;;;;;16.19;75.10;95458.72;5055297;28;1058;-56
2023/05/12 12:05:01;;;;;;;;;;;;;;;16.07;74.81;95457.53;5073169;28;1103;-56
2023/05/12 12:07:29;;;;;;;;;;;;;;;15.98;75.57;95455.97;5055180;28;1045;-55
2023/05/12 12:09:55;;;;;;;;;;;;;;;15.67;76.68;95464.19;5073105;28;1977;-56
2023/05/12 12:12:21;;;;;;;;;;;;;;;15.69;77.88;95465.69;5055571;28;1009;-56
2023/05/12 12:14:47;;;;;;;;;;;;;;;15.88;77.28;95450.84;5073051;28;1101;-56
2023/05/12 12:17:13;;;;;;;;;;;;;;;15.96;76.04;95452.63;5073035;28;1045;-56
2023/05/12 12:19:39;;;;;;;;;;;;;;;16.17;76.84;95452.66;5072977;28;1109;-56
2023/05/12 12:22:05;;;;;;;;;;;;;;;16.44;74.89;95441.38;5072959;28;1044;-56
2023/05/12 12:24:31;;;;;;;;;;;;;;;16.49;72.38;95442.47;5072772;28;964;-56
2023/05/12 12:26:58;;;;;;;;;;;;;;;16.53;74.29;95441.06;5072866;28;1034;-56
2023/05/12 12:29:25;;;;;;;;;;;;;;;16.36;75.08;95448.53;5072940;28;1989;-56
2023/05/12 12:31:51;;;;;;;;;;;;;;;16.22;75.56;95446.72;5073151;28;1012;-54
2023/05/12 12:34:17;;;;;;;;;;;;;;;15.98;76.54;95445.16;5072742;28;956;-54
2023/05/12 12:36:43;;;;;;;;;;;;;;;15.97;76.04;95446.19;5072743;28;1147;-54
2023/05/12 12:39:09;;;;;;;;;;;;;;;15.94;77.05;95446.56;5072404;28;1223;-55
2023/05/12 12:41:35;;;;;;;;;;;;;;;15.87;76.88;95451.84;5072735;28;1045;-55
2023/05/12 12:44:01;;;;;;;;;;;;;;;15.82;75.72;95448.88;5072734;28;1089;-55
2023/05/12 12:46:27;;;;;;;;;;;;;;;15.81;74.92;95448.06;5072928;28;1005;-55
2023/05/12 12:48:53;;;;;;;;;;;;;;;15.72;74.50;95445.59;5072722;28;1987;-56
2023/05/12 12:51:19;;;;;;;;;;;;;;;15.76;76.53;95450.50;5072635;28;1253;-56
2023/05/12 12:53:45;;;;;;;;;;;;;;;15.95;75.01;95437.44;5072545;28;989;-56